sensor_id;sensor_type;location;lat;lon;timestamp;P1;durP1;ratioP1;P2;durP2;ratioP2
14247;SDS011;7208;49.826;6.004;2024-03-08T00:00:51;10.27;;;5.20;;
14247;SDS011;7208;49.826;6.004;2024-03-08T00:03:17;10.03;;;3.90;;
14247;SDS011;7208;49.826;6.004;2024-03-08T00:05:43;4.97;;;4.47;;
14247;SDS011;7208;49.826;6.004;2024-03-08T00:08:10;8.20;;;4.43;;
14247;SDS011;7208;49.826;6.004;2024-03-08T00:10:36;10.50;;;5.10;;
14247;SDS011;7208;49.826;6.004;2024-03-08T00:13:03;7.93;;;3.37;;
14247;SDS011;7208;49.826;6.004;2024-03-08T00:15:29;8.50;;;4.33;;
14247;SDS011;7208;49.826;6.004;2024-03-08T00:17:57;6.83;;;5.20;;
14247;SDS011;7208;49.826;6.004;2024-03-08T00:20:23;11.57;;;6.73;;
14247;SDS011;7208;49.826;6.004;2024-03-08T00:22:49;7.20;;;3.93;;
14247;SDS011;7208;49.826;6.004;2024-03-08T00:25:16;10.40;;;4.50;;
14247;SDS011;7208;49.826;6.004;2024-03-08T00:27:43;8.77;;;4.97;;
14247;SDS011;7208;49.826;6.004;2024-03-08T00:30:09;9.37;;;4.60;;
14247;SDS011;7208;49.826;6.004;2024-03-08T00:32:38;9.87;;;4.87;;
14247;SDS011;7208;49.826;6.004;2024-03-08T00:35:04;9.93;;;5.00;;
14247;SDS011;7208;49.826;6.004;2024-03-08T00:37:33;9.07;;;4.67;;
14247;SDS011;7208;49.826;6.004;2024-03-08T00:39:59;10.13;;;4.67;;
14247;SDS011;7208;49.826;6.004;2024-03-08T00:42:26;7.40;;;5.10;;
14247;SDS011;7208;49.826;6.004;2024-03-08T00:44:52;12.13;;;8.07;;
14247;SDS011;7208;49.826;6.004;2024-03-08T00:47:18;9.63;;;5.17;;
14247;SDS011;7208;49.826;6.004;2024-03-08T00:49:44;8.53;;;4.20;;
14247;SDS011;7208;49.826;6.004;2024-03-08T00:52:11;11.00;;;4.60;;
14247;SDS011;7208;49.826;6.004;2024-03-08T00:54:37;9.23;;;5.27;;
14247;SDS011;7208;49.826;6.004;2024-03-08T00:57:03;11.50;;;4.73;;
14247;SDS011;7208;49.826;6.004;2024-03-08T00:59:29;7.70;;;4.23;;
14247;SDS011;7208;49.826;6.004;2024-03-08T01:01:57;9.10;;;4.40;;
14247;SDS011;7208;49.826;6.004;2024-03-08T01:04:25;5.50;;;4.07;;
14247;SDS011;7208;49.826;6.004;2024-03-08T01:06:53;7.23;;;4.43;;
14247;SDS011;7208;49.826;6.004;2024-03-08T01:09:21;7.67;;;4.03;;
14247;SDS011;7208;49.826;6.004;2024-03-08T01:11:47;7.30;;;4.47;;
14247;SDS011;7208;49.826;6.004;2024-03-08T01:14:14;7.23;;;3.73;;
14247;SDS011;7208;49.826;6.004;2024-03-08T01:16:40;6.03;;;3.53;;
14247;SDS011;7208;49.826;6.004;2024-03-08T01:19:06;8.03;;;3.47;;
14247;SDS011;7208;49.826;6.004;2024-03-08T01:21:33;8.60;;;5.57;;
14247;SDS011;7208;49.826;6.004;2024-03-08T01:23:59;9.30;;;4.10;;
14247;SDS011;7208;49.826;6.004;2024-03-08T01:26:25;8.03;;;4.33;;
14247;SDS011;7208;49.826;6.004;2024-03-08T01:28:51;6.33;;;3.20;;
14247;SDS011;7208;49.826;6.004;2024-03-08T01:31:18;9.63;;;4.20;;
14247;SDS011;7208;49.826;6.004;2024-03-08T01:33:44;6.70;;;3.83;;
14247;SDS011;7208;49.826;6.004;2024-03-08T01:36:10;8.20;;;4.50;;
14247;SDS011;7208;49.826;6.004;2024-03-08T01:38:40;8.40;;;4.90;;
14247;SDS011;7208;49.826;6.004;2024-03-08T01:41:06;13.27;;;8.03;;
14247;SDS011;7208;49.826;6.004;2024-03-08T01:43:32;12.57;;;7.50;;
14247;SDS011;7208;49.826;6.004;2024-03-08T01:45:58;11.33;;;8.23;;
14247;SDS011;7208;49.826;6.004;2024-03-08T01:48:25;16.07;;;8.23;;
14247;SDS011;7208;49.826;6.004;2024-03-08T01:50:51;12.50;;;8.63;;
14247;SDS011;7208;49.826;6.004;2024-03-08T01:53:18;14.90;;;7.27;;
14247;SDS011;7208;49.826;6.004;2024-03-08T01:55:45;12.33;;;7.67;;
14247;SDS011;7208;49.826;6.004;2024-03-08T01:58:12;13.27;;;8.93;;
14247;SDS011;7208;49.826;6.004;2024-03-08T02:00:44;13.20;;;8.53;;
14247;SDS011;7208;49.826;6.004;2024-03-08T02:03:10;16.50;;;8.30;;
14247;SDS011;7208;49.826;6.004;2024-03-08T02:05:37;15.87;;;9.13;;
14247;SDS011;7208;49.826;6.004;2024-03-08T02:08:04;14.17;;;8.30;;
14247;SDS011;7208;49.826;6.004;2024-03-08T02:10:32;6.37;;;4.53;;
14247;SDS011;7208;49.826;6.004;2024-03-08T02:12:58;10.13;;;4.40;;
14247;SDS011;7208;49.826;6.004;2024-03-08T02:15:25;6.50;;;3.63;;
14247;SDS011;7208;49.826;6.004;2024-03-08T02:17:51;7.37;;;3.20;;
14247;SDS011;7208;49.826;6.004;2024-03-08T02:20:18;15.47;;;8.53;;
14247;SDS011;7208;49.826;6.004;2024-03-08T02:22:45;9.23;;;4.80;;
14247;SDS011;7208;49.826;6.004;2024-03-08T02:25:11;7.30;;;4.83;;
14247;SDS011;7208;49.826;6.004;2024-03-08T02:27:37;4.63;;;4.23;;
14247;SDS011;7208;49.826;6.004;2024-03-08T02:30:03;6.93;;;4.30;;
14247;SDS011;7208;49.826;6.004;2024-03-08T02:32:30;6.63;;;4.17;;
14247;SDS011;7208;49.826;6.004;2024-03-08T02:34:57;10.50;;;5.00;;
14247;SDS011;7208;49.826;6.004;2024-03-08T02:37:26;5.63;;;4.10;;
14247;SDS011;7208;49.826;6.004;2024-03-08T02:39:53;10.70;;;4.20;;
14247;SDS011;7208;49.826;6.004;2024-03-08T02:42:19;7.93;;;3.77;;
14247;SDS011;7208;49.826;6.004;2024-03-08T02:44:45;9.50;;;5.57;;
14247;SDS011;7208;49.826;6.004;2024-03-08T02:47:11;6.83;;;4.23;;
14247;SDS011;7208;49.826;6.004;2024-03-08T02:49:37;10.30;;;4.90;;
14247;SDS011;7208;49.826;6.004;2024-03-08T02:52:04;8.70;;;4.03;;
14247;SDS011;7208;49.826;6.004;2024-03-08T02:54:30;7.50;;;3.77;;
14247;SDS011;7208;49.826;6.004;2024-03-08T02:56:56;6.03;;;3.73;;
14247;SDS011;7208;49.826;6.004;2024-03-08T02:59:22;7.23;;;4.90;;
14247;SDS011;7208;49.826;6.004;2024-03-08T03:01:48;7.80;;;4.57;;
14247;SDS011;7208;49.826;6.004;2024-03-08T03:04:15;6.00;;;3.20;;
14247;SDS011;7208;49.826;6.004;2024-03-08T03:06:41;7.90;;;4.10;;
14247;SDS011;7208;49.826;6.004;2024-03-08T03:09:07;7.10;;;4.53;;
14247;SDS011;7208;49.826;6.004;2024-03-08T03:11:35;8.77;;;4.30;;
14247;SDS011;7208;49.826;6.004;2024-03-08T03:14:02;8.17;;;4.10;;
14247;SDS011;7208;49.826;6.004;2024-03-08T03:16:29;5.70;;;4.23;;
14247;SDS011;7208;49.826;6.004;2024-03-08T03:18:55;8.60;;;3.90;;
14247;SDS011;7208;49.826;6.004;2024-03-08T03:21:22;7.73;;;4.20;;
14247;SDS011;7208;49.826;6.004;2024-03-08T03:23:48;10.10;;;5.13;;
14247;SDS011;7208;49.826;6.004;2024-03-08T03:26:14;9.97;;;6.37;;
14247;SDS011;7208;49.826;6.004;2024-03-08T03:28:42;11.73;;;4.33;;
14247;SDS011;7208;49.826;6.004;2024-03-08T03:31:08;6.70;;;4.87;;
14247;SDS011;7208;49.826;6.004;2024-03-08T03:33:39;9.57;;;5.13;;
14247;SDS011;7208;49.826;6.004;2024-03-08T03:36:05;8.00;;;4.40;;
14247;SDS011;7208;49.826;6.004;2024-03-08T03:38:33;8.63;;;5.50;;
14247;SDS011;7208;49.826;6.004;2024-03-08T03:40:59;13.57;;;9.37;;
14247;SDS011;7208;49.826;6.004;2024-03-08T03:43:35;8.27;;;5.20;;
14247;SDS011;7208;49.826;6.004;2024-03-08T03:46:05;10.33;;;4.93;;
14247;SDS011;7208;49.826;6.004;2024-03-08T03:48:31;6.63;;;3.50;;
14247;SDS011;7208;49.826;6.004;2024-03-08T03:50:57;13.60;;;5.50;;
14247;SDS011;7208;49.826;6.004;2024-03-08T03:53:23;8.63;;;5.43;;
14247;SDS011;7208;49.826;6.004;2024-03-08T03:55:52;13.97;;;5.37;;
14247;SDS011;7208;49.826;6.004;2024-03-08T03:58:18;13.50;;;5.97;;
14247;SDS011;7208;49.826;6.004;2024-03-08T04:00:47;9.57;;;5.40;;
14247;SDS011;7208;49.826;6.004;2024-03-08T04:03:14;8.37;;;5.10;;
14247;SDS011;7208;49.826;6.004;2024-03-08T04:05:41;8.50;;;4.90;;
14247;SDS011;7208;49.826;6.004;2024-03-08T04:08:07;10.30;;;5.43;;
14247;SDS011;7208;49.826;6.004;2024-03-08T04:10:33;9.37;;;5.60;;
14247;SDS011;7208;49.826;6.004;2024-03-08T04:13:00;10.73;;;5.03;;
14247;SDS011;7208;49.826;6.004;2024-03-08T04:15:26;6.30;;;4.60;;
14247;SDS011;7208;49.826;6.004;2024-03-08T04:17:52;13.50;;;5.63;;
14247;SDS011;7208;49.826;6.004;2024-03-08T04:20:18;9.17;;;5.67;;
14247;SDS011;7208;49.826;6.004;2024-03-08T04:22:44;8.37;;;5.40;;
14247;SDS011;7208;49.826;6.004;2024-03-08T04:25:14;8.27;;;5.00;;
14247;SDS011;7208;49.826;6.004;2024-03-08T04:27:40;9.63;;;5.17;;
14247;SDS011;7208;49.826;6.004;2024-03-08T04:30:06;9.57;;;5.13;;
14247;SDS011;7208;49.826;6.004;2024-03-08T04:32:32;9.33;;;5.97;;
14247;SDS011;7208;49.826;6.004;2024-03-08T04:34:58;7.70;;;4.70;;
14247;SDS011;7208;49.826;6.004;2024-03-08T04:37:26;8.30;;;4.90;;
14247;SDS011;7208;49.826;6.004;2024-03-08T04:39:54;9.93;;;5.20;;
14247;SDS011;7208;49.826;6.004;2024-03-08T04:42:20;8.13;;;5.63;;
14247;SDS011;7208;49.826;6.004;2024-03-08T04:44:47;10.90;;;5.00;;
14247;SDS011;7208;49.826;6.004;2024-03-08T04:47:13;6.63;;;4.10;;
14247;SDS011;7208;49.826;6.004;2024-03-08T04:49:39;12.53;;;5.60;;
14247;SDS011;7208;49.826;6.004;2024-03-08T04:52:05;11.97;;;5.57;;
14247;SDS011;7208;49.826;6.004;2024-03-08T04:54:32;8.27;;;4.63;;
14247;SDS011;7208;49.826;6.004;2024-03-08T04:56:58;8.17;;;4.07;;
14247;SDS011;7208;49.826;6.004;2024-03-08T04:59:25;10.20;;;5.60;;
14247;SDS011;7208;49.826;6.004;2024-03-08T05:01:52;6.87;;;4.57;;
14247;SDS011;7208;49.826;6.004;2024-03-08T05:04:21;11.90;;;5.87;;
14247;SDS011;7208;49.826;6.004;2024-03-08T05:06:48;8.07;;;5.33;;
14247;SDS011;7208;49.826;6.004;2024-03-08T05:09:14;10.67;;;6.23;;
14247;SDS011;7208;49.826;6.004;2024-03-08T05:11:41;17.37;;;6.00;;
14247;SDS011;7208;49.826;6.004;2024-03-08T05:14:08;9.83;;;5.33;;
14247;SDS011;7208;49.826;6.004;2024-03-08T05:16:35;9.50;;;5.57;;
14247;SDS011;7208;49.826;6.004;2024-03-08T05:19:01;9.20;;;5.70;;
14247;SDS011;7208;49.826;6.004;2024-03-08T05:21:28;8.57;;;5.50;;
14247;SDS011;7208;49.826;6.004;2024-03-08T05:23:54;11.03;;;5.63;;
14247;SDS011;7208;49.826;6.004;2024-03-08T05:26:20;10.57;;;6.07;;
14247;SDS011;7208;49.826;6.004;2024-03-08T05:28:47;13.93;;;5.33;;
14247;SDS011;7208;49.826;6.004;2024-03-08T05:31:20;12.67;;;8.00;;
14247;SDS011;7208;49.826;6.004;2024-03-08T05:33:49;18.33;;;11.37;;
14247;SDS011;7208;49.826;6.004;2024-03-08T05:36:15;16.13;;;7.57;;
14247;SDS011;7208;49.826;6.004;2024-03-08T05:38:44;20.13;;;11.90;;
14247;SDS011;7208;49.826;6.004;2024-03-08T05:41:11;20.87;;;11.60;;
14247;SDS011;7208;49.826;6.004;2024-03-08T05:43:37;24.40;;;12.93;;
14247;SDS011;7208;49.826;6.004;2024-03-08T05:46:04;22.27;;;12.70;;
14247;SDS011;7208;49.826;6.004;2024-03-08T05:48:30;10.27;;;5.57;;
14247;SDS011;7208;49.826;6.004;2024-03-08T05:51:02;20.83;;;11.47;;
14247;SDS011;7208;49.826;6.004;2024-03-08T05:53:28;18.87;;;12.97;;
14247;SDS011;7208;49.826;6.004;2024-03-08T05:55:57;21.50;;;9.90;;
14247;SDS011;7208;49.826;6.004;2024-03-08T05:58:23;16.00;;;8.57;;
14247;SDS011;7208;49.826;6.004;2024-03-08T06:00:50;20.30;;;11.67;;
14247;SDS011;7208;49.826;6.004;2024-03-08T06:03:16;14.07;;;7.30;;
14247;SDS011;7208;49.826;6.004;2024-03-08T06:05:43;10.50;;;5.17;;
14247;SDS011;7208;49.826;6.004;2024-03-08T06:08:09;16.87;;;7.73;;
14247;SDS011;7208;49.826;6.004;2024-03-08T06:10:36;12.53;;;6.77;;
14247;SDS011;7208;49.826;6.004;2024-03-08T06:13:03;15.17;;;8.33;;
14247;SDS011;7208;49.826;6.004;2024-03-08T06:15:29;15.10;;;6.93;;
14247;SDS011;7208;49.826;6.004;2024-03-08T06:17:55;10.70;;;6.13;;
14247;SDS011;7208;49.826;6.004;2024-03-08T06:20:21;10.00;;;5.67;;
14247;SDS011;7208;49.826;6.004;2024-03-08T06:22:51;10.73;;;5.57;;
14247;SDS011;7208;49.826;6.004;2024-03-08T06:25:17;7.00;;;4.63;;
14247;SDS011;7208;49.826;6.004;2024-03-08T06:27:43;9.90;;;5.50;;
14247;SDS011;7208;49.826;6.004;2024-03-08T06:30:11;12.53;;;5.80;;
14247;SDS011;7208;49.826;6.004;2024-03-08T06:32:37;8.80;;;5.63;;
14247;SDS011;7208;49.826;6.004;2024-03-08T06:35:04;10.93;;;7.37;;
14247;SDS011;7208;49.826;6.004;2024-03-08T06:37:34;9.03;;;5.97;;
14247;SDS011;7208;49.826;6.004;2024-03-08T06:40:01;9.50;;;5.93;;
14247;SDS011;7208;49.826;6.004;2024-03-08T06:42:28;10.70;;;5.33;;
14247;SDS011;7208;49.826;6.004;2024-03-08T06:44:57;9.00;;;6.17;;
14247;SDS011;7208;49.826;6.004;2024-03-08T06:47:29;21.07;;;11.80;;
14247;SDS011;7208;49.826;6.004;2024-03-08T06:49:55;18.37;;;11.90;;
14247;SDS011;7208;49.826;6.004;2024-03-08T06:52:21;18.53;;;12.07;;
14247;SDS011;7208;49.826;6.004;2024-03-08T06:54:47;12.10;;;6.40;;
14247;SDS011;7208;49.826;6.004;2024-03-08T06:57:14;20.00;;;12.47;;
14247;SDS011;7208;49.826;6.004;2024-03-08T06:59:41;11.87;;;6.37;;
14247;SDS011;7208;49.826;6.004;2024-03-08T07:02:08;13.80;;;6.67;;
14247;SDS011;7208;49.826;6.004;2024-03-08T07:04:34;12.37;;;6.00;;
14247;SDS011;7208;49.826;6.004;2024-03-08T07:07:06;13.47;;;6.97;;
14247;SDS011;7208;49.826;6.004;2024-03-08T07:09:38;18.90;;;7.60;;
14247;SDS011;7208;49.826;6.004;2024-03-08T07:12:04;8.57;;;5.97;;
14247;SDS011;7208;49.826;6.004;2024-03-08T07:14:30;7.97;;;4.83;;
14247;SDS011;7208;49.826;6.004;2024-03-08T07:16:56;11.93;;;6.30;;
14247;SDS011;7208;49.826;6.004;2024-03-08T07:19:22;12.37;;;6.33;;
14247;SDS011;7208;49.826;6.004;2024-03-08T07:21:49;9.43;;;5.60;;
14247;SDS011;7208;49.826;6.004;2024-03-08T07:24:15;14.93;;;6.77;;
14247;SDS011;7208;49.826;6.004;2024-03-08T07:26:47;8.80;;;5.53;;
14247;SDS011;7208;49.826;6.004;2024-03-08T07:29:17;11.60;;;6.17;;
14247;SDS011;7208;49.826;6.004;2024-03-08T07:31:43;12.67;;;5.77;;
14247;SDS011;7208;49.826;6.004;2024-03-08T07:34:15;7.13;;;4.97;;
14247;SDS011;7208;49.826;6.004;2024-03-08T07:36:41;10.67;;;6.73;;
14247;SDS011;7208;49.826;6.004;2024-03-08T07:39:07;13.97;;;7.17;;
14247;SDS011;7208;49.826;6.004;2024-03-08T07:41:39;12.47;;;7.67;;
14247;SDS011;7208;49.826;6.004;2024-03-08T07:44:08;11.23;;;5.37;;
14247;SDS011;7208;49.826;6.004;2024-03-08T07:46:35;12.27;;;6.07;;
14247;SDS011;7208;49.826;6.004;2024-03-08T07:49:02;10.13;;;5.87;;
14247;SDS011;7208;49.826;6.004;2024-03-08T07:51:28;10.47;;;6.33;;
14247;SDS011;7208;49.826;6.004;2024-03-08T07:53:55;14.77;;;6.50;;
14247;SDS011;7208;49.826;6.004;2024-03-08T07:56:22;15.27;;;6.80;;
14247;SDS011;7208;49.826;6.004;2024-03-08T07:58:48;13.90;;;5.90;;
14247;SDS011;7208;49.826;6.004;2024-03-08T08:01:17;10.67;;;6.20;;
14247;SDS011;7208;49.826;6.004;2024-03-08T08:03:44;13.00;;;6.67;;
14247;SDS011;7208;49.826;6.004;2024-03-08T08:06:10;11.50;;;6.07;;
14247;SDS011;7208;49.826;6.004;2024-03-08T08:08:44;8.17;;;5.80;;
14247;SDS011;7208;49.826;6.004;2024-03-08T08:11:10;15.47;;;7.90;;
14247;SDS011;7208;49.826;6.004;2024-03-08T08:13:36;11.60;;;6.90;;
14247;SDS011;7208;49.826;6.004;2024-03-08T08:16:04;13.97;;;7.73;;
14247;SDS011;7208;49.826;6.004;2024-03-08T08:18:33;17.07;;;6.80;;
14247;SDS011;7208;49.826;6.004;2024-03-08T08:21:01;14.90;;;8.10;;
14247;SDS011;7208;49.826;6.004;2024-03-08T08:23:27;15.80;;;7.80;;
14247;SDS011;7208;49.826;6.004;2024-03-08T08:25:55;12.00;;;6.43;;
14247;SDS011;7208;49.826;6.004;2024-03-08T08:28:21;11.70;;;7.10;;
14247;SDS011;7208;49.826;6.004;2024-03-08T08:30:47;12.77;;;7.33;;
14247;SDS011;7208;49.826;6.004;2024-03-08T08:33:14;13.17;;;7.30;;
14247;SDS011;7208;49.826;6.004;2024-03-08T08:35:40;10.13;;;6.57;;
14247;SDS011;7208;49.826;6.004;2024-03-08T08:38:06;12.23;;;7.27;;
14247;SDS011;7208;49.826;6.004;2024-03-08T08:40:32;14.50;;;7.27;;
14247;SDS011;7208;49.826;6.004;2024-03-08T08:42:59;11.67;;;7.37;;
14247;SDS011;7208;49.826;6.004;2024-03-08T08:45:25;13.57;;;7.27;;
14247;SDS011;7208;49.826;6.004;2024-03-08T08:47:51;13.70;;;7.63;;
14247;SDS011;7208;49.826;6.004;2024-03-08T08:50:18;17.13;;;7.83;;
14247;SDS011;7208;49.826;6.004;2024-03-08T08:52:50;12.53;;;7.47;;
14247;SDS011;7208;49.826;6.004;2024-03-08T08:55:16;11.23;;;6.83;;
14247;SDS011;7208;49.826;6.004;2024-03-08T08:57:45;9.47;;;6.00;;
14247;SDS011;7208;49.826;6.004;2024-03-08T09:00:13;13.93;;;7.10;;
14247;SDS011;7208;49.826;6.004;2024-03-08T09:02:43;10.77;;;6.00;;
14247;SDS011;7208;49.826;6.004;2024-03-08T09:05:10;9.67;;;7.13;;
14247;SDS011;7208;49.826;6.004;2024-03-08T09:07:45;10.30;;;7.17;;
14247;SDS011;7208;49.826;6.004;2024-03-08T09:10:11;9.70;;;7.37;;
14247;SDS011;7208;49.826;6.004;2024-03-08T09:12:38;11.10;;;6.90;;
14247;SDS011;7208;49.826;6.004;2024-03-08T09:15:04;11.93;;;6.80;;
14247;SDS011;7208;49.826;6.004;2024-03-08T09:17:33;11.00;;;6.70;;
14247;SDS011;7208;49.826;6.004;2024-03-08T09:19:59;11.40;;;6.30;;
14247;SDS011;7208;49.826;6.004;2024-03-08T09:22:25;9.27;;;6.77;;
14247;SDS011;7208;49.826;6.004;2024-03-08T09:24:51;10.63;;;7.20;;
14247;SDS011;7208;49.826;6.004;2024-03-08T09:27:18;9.77;;;7.27;;
14247;SDS011;7208;49.826;6.004;2024-03-08T09:29:44;11.63;;;7.43;;
14247;SDS011;7208;49.826;6.004;2024-03-08T09:32:10;11.27;;;6.97;;
14247;SDS011;7208;49.826;6.004;2024-03-08T09:34:37;9.33;;;6.93;;
14247;SDS011;7208;49.826;6.004;2024-03-08T09:37:03;9.53;;;7.20;;
14247;SDS011;7208;49.826;6.004;2024-03-08T09:39:29;8.97;;;7.10;;
14247;SDS011;7208;49.826;6.004;2024-03-08T09:41:55;10.07;;;7.10;;
14247;SDS011;7208;49.826;6.004;2024-03-08T09:44:22;9.07;;;7.00;;
14247;SDS011;7208;49.826;6.004;2024-03-08T09:46:50;7.80;;;6.20;;
14247;SDS011;7208;49.826;6.004;2024-03-08T09:49:18;11.73;;;6.70;;
14247;SDS011;7208;49.826;6.004;2024-03-08T09:51:44;8.73;;;7.20;;
14247;SDS011;7208;49.826;6.004;2024-03-08T09:54:11;10.77;;;6.90;;
14247;SDS011;7208;49.826;6.004;2024-03-08T09:56:37;9.07;;;7.10;;
14247;SDS011;7208;49.826;6.004;2024-03-08T09:59:09;9.63;;;6.40;;
14247;SDS011;7208;49.826;6.004;2024-03-08T10:01:47;10.17;;;6.77;;
14247;SDS011;7208;49.826;6.004;2024-03-08T10:04:13;8.87;;;6.20;;
14247;SDS011;7208;49.826;6.004;2024-03-08T10:06:40;9.30;;;6.80;;
14247;SDS011;7208;49.826;6.004;2024-03-08T10:09:06;8.70;;;7.00;;
14247;SDS011;7208;49.826;6.004;2024-03-08T10:11:33;9.50;;;7.07;;
14247;SDS011;7208;49.826;6.004;2024-03-08T10:14:00;7.67;;;5.97;;
14247;SDS011;7208;49.826;6.004;2024-03-08T10:16:27;8.37;;;6.23;;
14247;SDS011;7208;49.826;6.004;2024-03-08T10:18:53;10.50;;;6.60;;
14247;SDS011;7208;49.826;6.004;2024-03-08T10:21:21;7.87;;;6.73;;
14247;SDS011;7208;49.826;6.004;2024-03-08T10:23:48;7.63;;;6.37;;
14247;SDS011;7208;49.826;6.004;2024-03-08T10:26:15;7.90;;;7.03;;
14247;SDS011;7208;49.826;6.004;2024-03-08T10:28:45;8.50;;;6.33;;
14247;SDS011;7208;49.826;6.004;2024-03-08T10:31:13;8.47;;;6.67;;
14247;SDS011;7208;49.826;6.004;2024-03-08T10:33:40;7.57;;;6.17;;
14247;SDS011;7208;49.826;6.004;2024-03-08T10:36:10;7.90;;;7.10;;
14247;SDS011;7208;49.826;6.004;2024-03-08T10:38:39;8.40;;;6.50;;
14247;SDS011;7208;49.826;6.004;2024-03-08T10:41:07;8.30;;;6.60;;
14247;SDS011;7208;49.826;6.004;2024-03-08T10:48:53;7.77;;;6.67;;
14247;SDS011;7208;49.826;6.004;2024-03-08T10:51:21;8.03;;;6.30;;
14247;SDS011;7208;49.826;6.004;2024-03-08T10:53:48;9.53;;;6.27;;
14247;SDS011;7208;49.826;6.004;2024-03-08T10:56:16;7.63;;;6.43;;
14247;SDS011;7208;49.826;6.004;2024-03-08T10:58:42;7.63;;;5.90;;
14247;SDS011;7208;49.826;6.004;2024-03-08T11:01:09;7.80;;;5.70;;
14247;SDS011;7208;49.826;6.004;2024-03-08T11:06:30;7.77;;;6.90;;
14247;SDS011;7208;49.826;6.004;2024-03-08T11:08:55;8.33;;;7.07;;
14247;SDS011;7208;49.826;6.004;2024-03-08T11:13:56;9.50;;;6.90;;
14247;SDS011;7208;49.826;6.004;2024-03-08T11:18:59;8.93;;;7.60;;
14247;SDS011;7208;49.826;6.004;2024-03-08T11:21:32;7.80;;;6.20;;
14247;SDS011;7208;49.826;6.004;2024-03-08T11:24:08;9.77;;;6.37;;
14247;SDS011;7208;49.826;6.004;2024-03-08T11:26:39;9.07;;;6.87;;
14247;SDS011;7208;49.826;6.004;2024-03-08T11:31:50;8.47;;;6.33;;
14247;SDS011;7208;49.826;6.004;2024-03-08T11:34:16;8.80;;;7.03;;
14247;SDS011;7208;49.826;6.004;2024-03-08T11:36:44;8.87;;;6.83;;
14247;SDS011;7208;49.826;6.004;2024-03-08T11:39:13;8.67;;;6.93;;
14247;SDS011;7208;49.826;6.004;2024-03-08T11:41:40;7.73;;;6.23;;
14247;SDS011;7208;49.826;6.004;2024-03-08T11:44:10;8.47;;;6.20;;
14247;SDS011;7208;49.826;6.004;2024-03-08T11:46:41;8.10;;;7.23;;
14247;SDS011;7208;49.826;6.004;2024-03-08T11:49:11;8.30;;;6.33;;
14247;SDS011;7208;49.826;6.004;2024-03-08T11:51:38;7.60;;;6.63;;
14247;SDS011;7208;49.826;6.004;2024-03-08T11:54:04;9.80;;;6.97;;
14247;SDS011;7208;49.826;6.004;2024-03-08T11:56:31;9.17;;;7.00;;
14247;SDS011;7208;49.826;6.004;2024-03-08T11:58:57;7.57;;;6.50;;
14247;SDS011;7208;49.826;6.004;2024-03-08T12:01:24;9.40;;;6.70;;
14247;SDS011;7208;49.826;6.004;2024-03-08T12:03:54;8.17;;;7.13;;
14247;SDS011;7208;49.826;6.004;2024-03-08T12:06:23;7.83;;;5.97;;
14247;SDS011;7208;49.826;6.004;2024-03-08T12:08:49;7.67;;;6.17;;
14247;SDS011;7208;49.826;6.004;2024-03-08T12:11:19;7.80;;;7.00;;
14247;SDS011;7208;49.826;6.004;2024-03-08T12:13:49;7.23;;;5.70;;
14247;SDS011;7208;49.826;6.004;2024-03-08T12:16:17;7.77;;;6.83;;
14247;SDS011;7208;49.826;6.004;2024-03-08T12:18:43;7.70;;;5.97;;
14247;SDS011;7208;49.826;6.004;2024-03-08T12:21:11;7.27;;;6.00;;
14247;SDS011;7208;49.826;6.004;2024-03-08T12:23:46;9.20;;;6.87;;
14247;SDS011;7208;49.826;6.004;2024-03-08T12:26:16;8.10;;;5.67;;
14247;SDS011;7208;49.826;6.004;2024-03-08T12:28:43;8.20;;;6.33;;
14247;SDS011;7208;49.826;6.004;2024-03-08T12:31:11;9.60;;;6.73;;
14247;SDS011;7208;49.826;6.004;2024-03-08T12:34:00;7.00;;;6.30;;
14247;SDS011;7208;49.826;6.004;2024-03-08T12:36:24;7.47;;;6.67;;
14247;SDS011;7208;49.826;6.004;2024-03-08T12:38:50;6.53;;;5.83;;
14247;SDS011;7208;49.826;6.004;2024-03-08T12:41:17;9.13;;;6.00;;
14247;SDS011;7208;49.826;6.004;2024-03-08T12:43:44;6.90;;;5.93;;
14247;SDS011;7208;49.826;6.004;2024-03-08T12:46:22;7.20;;;5.83;;
14247;SDS011;7208;49.826;6.004;2024-03-08T12:48:51;8.00;;;5.90;;
14247;SDS011;7208;49.826;6.004;2024-03-08T12:51:18;7.60;;;6.33;;
14247;SDS011;7208;49.826;6.004;2024-03-08T12:53:45;6.83;;;6.13;;
14247;SDS011;7208;49.826;6.004;2024-03-08T12:56:12;8.63;;;5.50;;
14247;SDS011;7208;49.826;6.004;2024-03-08T12:58:39;7.13;;;5.70;;
14247;SDS011;7208;49.826;6.004;2024-03-08T13:01:05;7.30;;;6.07;;
14247;SDS011;7208;49.826;6.004;2024-03-08T13:03:32;6.93;;;5.43;;
14247;SDS011;7208;49.826;6.004;2024-03-08T13:06:00;7.03;;;6.33;;
14247;SDS011;7208;49.826;6.004;2024-03-08T13:08:26;6.33;;;5.63;;
14247;SDS011;7208;49.826;6.004;2024-03-08T13:10:54;7.10;;;5.70;;
14247;SDS011;7208;49.826;6.004;2024-03-08T13:13:20;6.97;;;5.83;;
14247;SDS011;7208;49.826;6.004;2024-03-08T13:15:47;6.73;;;5.83;;
14247;SDS011;7208;49.826;6.004;2024-03-08T13:18:14;8.47;;;7.23;;
14247;SDS011;7208;49.826;6.004;2024-03-08T13:20:41;6.13;;;5.33;;
14247;SDS011;7208;49.826;6.004;2024-03-08T13:23:09;6.87;;;5.67;;
14247;SDS011;7208;49.826;6.004;2024-03-08T13:25:35;7.80;;;6.13;;
14247;SDS011;7208;49.826;6.004;2024-03-08T13:28:03;7.23;;;6.53;;
14247;SDS011;7208;49.826;6.004;2024-03-08T13:30:31;7.53;;;6.10;;
14247;SDS011;7208;49.826;6.004;2024-03-08T13:32:57;7.30;;;6.13;;
14247;SDS011;7208;49.826;6.004;2024-03-08T13:35:23;6.70;;;5.83;;
14247;SDS011;7208;49.826;6.004;2024-03-08T13:37:51;7.67;;;6.20;;
14247;SDS011;7208;49.826;6.004;2024-03-08T13:40:17;6.57;;;5.37;;
14247;SDS011;7208;49.826;6.004;2024-03-08T13:42:45;6.73;;;5.77;;
14247;SDS011;7208;49.826;6.004;2024-03-08T13:45:12;7.30;;;6.37;;
14247;SDS011;7208;49.826;6.004;2024-03-08T13:47:39;7.50;;;6.20;;
14247;SDS011;7208;49.826;6.004;2024-03-08T13:50:09;6.40;;;5.80;;
14247;SDS011;7208;49.826;6.004;2024-03-08T13:52:39;7.97;;;6.20;;
14247;SDS011;7208;49.826;6.004;2024-03-08T13:55:06;6.30;;;5.47;;
14247;SDS011;7208;49.826;6.004;2024-03-08T13:57:32;8.03;;;6.83;;
14247;SDS011;7208;49.826;6.004;2024-03-08T13:59:58;8.27;;;6.40;;
14247;SDS011;7208;49.826;6.004;2024-03-08T14:02:25;7.57;;;6.27;;
14247;SDS011;7208;49.826;6.004;2024-03-08T14:04:55;8.90;;;7.33;;
14247;SDS011;7208;49.826;6.004;2024-03-08T14:07:22;8.03;;;6.67;;
14247;SDS011;7208;49.826;6.004;2024-03-08T14:09:53;8.83;;;6.40;;
14247;SDS011;7208;49.826;6.004;2024-03-08T14:12:19;7.97;;;6.60;;
14247;SDS011;7208;49.826;6.004;2024-03-08T14:14:45;8.10;;;6.60;;
14247;SDS011;7208;49.826;6.004;2024-03-08T14:17:11;8.93;;;6.60;;
14247;SDS011;7208;49.826;6.004;2024-03-08T14:19:42;9.67;;;6.67;;
14247;SDS011;7208;49.826;6.004;2024-03-08T14:22:08;8.57;;;6.97;;
14247;SDS011;7208;49.826;6.004;2024-03-08T14:24:38;7.73;;;6.53;;
14247;SDS011;7208;49.826;6.004;2024-03-08T14:27:04;9.80;;;6.90;;
14247;SDS011;7208;49.826;6.004;2024-03-08T14:29:33;7.90;;;6.50;;
14247;SDS011;7208;49.826;6.004;2024-03-08T14:31:59;8.10;;;5.80;;
14247;SDS011;7208;49.826;6.004;2024-03-08T14:34:26;9.20;;;7.77;;
14247;SDS011;7208;49.826;6.004;2024-03-08T14:36:54;7.90;;;6.43;;
14247;SDS011;7208;49.826;6.004;2024-03-08T14:39:20;7.10;;;6.33;;
14247;SDS011;7208;49.826;6.004;2024-03-08T14:41:51;7.47;;;6.40;;
14247;SDS011;7208;49.826;6.004;2024-03-08T14:44:22;8.40;;;6.27;;
14247;SDS011;7208;49.826;6.004;2024-03-08T14:46:57;7.23;;;6.53;;
14247;SDS011;7208;49.826;6.004;2024-03-08T14:49:24;7.47;;;6.67;;
14247;SDS011;7208;49.826;6.004;2024-03-08T14:51:54;7.67;;;6.60;;
14247;SDS011;7208;49.826;6.004;2024-03-08T14:54:23;7.47;;;6.40;;
14247;SDS011;7208;49.826;6.004;2024-03-08T14:56:49;7.93;;;6.90;;
14247;SDS011;7208;49.826;6.004;2024-03-08T14:59:20;7.80;;;6.60;;
14247;SDS011;7208;49.826;6.004;2024-03-08T15:01:46;7.27;;;6.30;;
14247;SDS011;7208;49.826;6.004;2024-03-08T15:04:12;7.57;;;6.53;;
14247;SDS011;7208;49.826;6.004;2024-03-08T15:06:38;7.83;;;7.03;;
14247;SDS011;7208;49.826;6.004;2024-03-08T15:09:05;7.20;;;6.20;;
14247;SDS011;7208;49.826;6.004;2024-03-08T15:11:51;8.07;;;6.77;;